Time;durP1;ratioP1;P1;durP2;ratioP2;P2;SDS_P1;SDS_P2;PMS_P1;PMS_P2;Temp;Humidity;BMP_temperature;BMP_pressure;BME280_temperature;BME280_humidity;BME280_pressure;Samples;Min_cycle;Max_cycle;Signal;HPM_P1;HPM_P2
2024/04/13 00:02:05;;;;;;;8.20;3.22;;;;;;;;;;5543331;25;20429;-58
2024/04/13 00:04:31;;;;;;;4.63;2.95;;;;;;;;;;5539904;25;20349;-56
2024/04/13 00:06:57;;;;;;;5.50;3.20;;;;;;;;;;5525585;26;20008;-58
2024/04/13 00:09:23;;;;;;;11.43;3.50;;;;;;;;;;5525743;25;19994;-58
2024/04/13 00:11:49;;;;;;;4.72;3.05;;;;;;;;;;5544865;25;20504;-58
2024/04/13 00:14:15;;;;;;;5.20;3.53;;;;;;;;;;5526889;25;20397;-58
2024/04/13 00:16:41;;;;;;;6.75;3.60;;;;;;;;;;5525521;26;20023;-57
2024/04/13 00:19:07;;;;;;;6.13;3.40;;;;;;;;;;5549411;25;20040;-60
2024/04/13 00:21:33;;;;;;;9.43;3.65;;;;;;;;;;5531961;25;20070;-61
2024/04/13 00:23:59;;;;;;;6.15;4.05;;;;;;;;;;5528203;25;20011;-61
2024/04/13 00:26:25;;;;;;;7.80;3.30;;;;;;;;;;5526160;25;20437;-61
2024/04/13 00:28:53;;;;;;;5.13;3.60;;;;;;;;;;5529170;25;20005;-61
2024/04/13 00:31:20;;;;;;;12.05;4.13;;;;;;;;;;5524110;25;19997;-62
2024/04/13 00:33:47;;;;;;;7.65;3.83;;;;;;;;;;5527069;25;19998;-61
2024/04/13 00:36:13;;;;;;;9.52;4.03;;;;;;;;;;5525148;25;20363;-61
2024/04/13 00:38:39;;;;;;;5.07;3.38;;;;;;;;;;5525272;25;20011;-61
2024/04/13 00:41:05;;;;;;;6.55;3.70;;;;;;;;;;5525140;25;20032;-61
2024/04/13 00:43:31;;;;;;;9.32;4.05;;;;;;;;;;5527994;25;20155;-61
2024/04/13 00:46:06;;;;;;;8.98;4.68;;;;;;;;;;5537107;25;20007;-62
2024/04/13 00:48:32;;;;;;;6.72;3.90;;;;;;;;;;5534693;25;20012;-61
2024/04/13 00:51:00;;;;;;;8.35;4.00;;;;;;;;;;5550913;25;19993;-61
2024/04/13 00:53:26;;;;;;;7.13;4.20;;;;;;;;;;5526466;25;20006;-62
2024/04/13 00:55:54;;;;;;;7.53;4.15;;;;;;;;;;5524477;26;20342;-62
2024/04/13 00:58:26;;;;;;;6.53;3.50;;;;;;;;;;5545626;25;20004;-62
2024/04/13 01:00:52;;;;;;;10.77;4.25;;;;;;;;;;5541778;25;20030;-61
2024/04/13 01:03:21;;;;;;;7.47;3.90;;;;;;;;;;5524093;25;20015;-61
2024/04/13 01:05:48;;;;;;;5.95;3.58;;;;;;;;;;5524965;25;20017;-61
2024/04/13 01:08:15;;;;;;;7.90;4.10;;;;;;;;;;5540844;25;20041;-61
2024/04/13 01:10:44;;;;;;;6.13;3.92;;;;;;;;;;5524841;25;20005;-61
2024/04/13 01:13:10;;;;;;;5.03;3.45;;;;;;;;;;5540867;25;19998;-61
2024/04/13 01:15:36;;;;;;;8.23;3.45;;;;;;;;;;5524825;25;20008;-61
2024/04/13 01:18:03;;;;;;;6.85;3.80;;;;;;;;;;5540511;25;20005;-61
2024/04/13 01:20:29;;;;;;;5.68;3.70;;;;;;;;;;5526057;25;19998;-61
2024/04/13 01:22:56;;;;;;;7.20;3.95;;;;;;;;;;5545489;25;20069;-58
2024/04/13 01:25:22;;;;;;;5.90;3.28;;;;;;;;;;5524626;25;19994;-62
2024/04/13 01:27:48;;;;;;;3.47;2.80;;;;;;;;;;5532937;25;20321;-60
2024/04/13 01:30:16;;;;;;;6.60;4.10;;;;;;;;;;5532084;25;20005;-61
2024/04/13 01:32:42;;;;;;;6.07;4.07;;;;;;;;;;5532693;25;20473;-62
2024/04/13 01:35:11;;;;;;;6.75;3.85;;;;;;;;;;5524798;25;20038;-62
2024/04/13 01:37:38;;;;;;;8.23;4.15;;;;;;;;;;5533939;25;20029;-61
2024/04/13 01:40:04;;;;;;;6.40;4.10;;;;;;;;;;5528490;25;20008;-61
2024/04/13 01:42:30;;;;;;;4.95;3.63;;;;;;;;;;5543693;25;20021;-61
2024/04/13 01:44:56;;;;;;;9.40;4.35;;;;;;;;;;5534816;25;20060;-61
2024/04/13 01:47:22;;;;;;;6.82;3.72;;;;;;;;;;5528390;25;20011;-61
2024/04/13 01:49:48;;;;;;;10.73;5.00;;;;;;;;;;5538465;25;20000;-61
2024/04/13 01:52:14;;;;;;;12.18;4.85;;;;;;;;;;5556424;25;20011;-61
2024/04/13 01:54:41;;;;;;;10.35;5.20;;;;;;;;;;5548203;25;20009;-61
2024/04/13 01:57:07;;;;;;;9.00;4.40;;;;;;;;;;5528291;25;20012;-61
2024/04/13 01:59:33;;;;;;;8.40;4.82;;;;;;;;;;5547327;25;19997;-61
2024/04/13 02:01:59;;;;;;;8.27;3.65;;;;;;;;;;5553408;25;20012;-61
2024/04/13 02:04:25;;;;;;;11.32;4.60;;;;;;;;;;5527513;25;20529;-61
2024/04/13 02:06:51;;;;;;;6.22;4.50;;;;;;;;;;5527405;25;20001;-59
2024/04/13 02:09:18;;;;;;;8.80;4.25;;;;;;;;;;5527889;25;20470;-61
2024/04/13 02:11:45;;;;;;;7.60;3.95;;;;;;;;;;5562604;25;20001;-61
2024/04/13 02:14:11;;;;;;;8.80;4.22;;;;;;;;;;5543541;25;20460;-61
2024/04/13 02:16:37;;;;;;;9.57;4.70;;;;;;;;;;5564240;25;20007;-61
2024/04/13 02:19:04;;;;;;;7.85;4.03;;;;;;;;;;5562854;25;19996;-61
2024/04/13 02:21:31;;;;;;;9.05;4.32;;;;;;;;;;5546644;25;19994;-61
2024/04/13 02:23:57;;;;;;;10.98;4.45;;;;;;;;;;5544867;25;19997;-61
2024/04/13 02:26:23;;;;;;;7.95;4.50;;;;;;;;;;5561601;25;20007;-60
2024/04/13 02:28:49;;;;;;;9.15;4.80;;;;;;;;;;5563298;25;20008;-61
2024/04/13 02:31:15;;;;;;;5.88;4.43;;;;;;;;;;5538942;25;20009;-61
2024/04/13 02:33:40;;;;;;;10.60;5.43;;;;;;;;;;5527072;25;20015;-61
2024/04/13 02:36:07;;;;;;;9.57;4.85;;;;;;;;;;5544701;25;20001;-61
2024/04/13 02:38:33;;;;;;;11.65;5.03;;;;;;;;;;5546821;25;19997;-60
2024/04/13 02:41:00;;;;;;;11.82;5.80;;;;;;;;;;5548840;25;20445;-59
2024/04/13 02:43:26;;;;;;;8.60;4.95;;;;;;;;;;5563058;25;19997;-59
2024/04/13 02:45:52;;;;;;;11.00;5.85;;;;;;;;;;5550938;25;20421;-60
2024/04/13 02:48:19;;;;;;;9.30;4.78;;;;;;;;;;5539377;25;20487;-60
2024/04/13 02:50:45;;;;;;;9.00;5.43;;;;;;;;;;5549234;25;20423;-61
2024/04/13 02:53:11;;;;;;;8.85;4.85;;;;;;;;;;5526452;25;20008;-59
2024/04/13 02:55:37;;;;;;;15.23;4.95;;;;;;;;;;5525778;26;20022;-59
2024/04/13 02:58:03;;;;;;;10.55;5.43;;;;;;;;;;5544970;25;19998;-59
2024/04/13 03:00:29;;;;;;;7.78;4.97;;;;;;;;;;5526623;25;20386;-59
2024/04/13 03:02:57;;;;;;;8.23;5.15;;;;;;;;;;5526231;25;20002;-59
2024/04/13 03:05:23;;;;;;;8.10;5.05;;;;;;;;;;5554304;25;20080;-60
2024/04/13 03:07:49;;;;;;;9.95;5.15;;;;;;;;;;5563969;25;19993;-60
2024/04/13 03:10:15;;;;;;;7.63;4.65;;;;;;;;;;5527688;25;20448;-59
2024/04/13 03:12:40;;;;;;;7.75;4.60;;;;;;;;;;5540687;25;20466;-60
2024/04/13 03:15:08;;;;;;;9.52;4.60;;;;;;;;;;5539040;25;20548;-58
2024/04/13 03:17:34;;;;;;;6.40;4.22;;;;;;;;;;5526937;25;20033;-60
2024/04/13 03:20:00;;;;;;;7.60;4.80;;;;;;;;;;5531619;25;20041;-59
2024/04/13 03:22:25;;;;;;;8.20;4.65;;;;;;;;;;5557836;25;20527;-59
2024/04/13 03:24:51;;;;;;;8.18;4.63;;;;;;;;;;5549572;25;20368;-59
2024/04/13 03:27:18;;;;;;;13.00;5.22;;;;;;;;;;5526377;25;20029;-60
2024/04/13 03:29:44;;;;;;;10.23;5.57;;;;;;;;;;5526770;25;19997;-59
2024/04/13 03:32:10;;;;;;;9.25;5.10;;;;;;;;;;5557800;25;20007;-60
2024/04/13 03:34:37;;;;;;;7.70;4.90;;;;;;;;;;5556961;25;20007;-59
2024/04/13 03:37:03;;;;;;;7.60;4.47;;;;;;;;;;5559063;25;20001;-61
2024/04/13 03:39:29;;;;;;;11.00;4.63;;;;;;;;;;5531370;25;20030;-60
2024/04/13 03:41:55;;;;;;;9.50;6.05;;;;;;;;;;5554806;25;20472;-61
2024/04/13 03:44:21;;;;;;;9.65;5.72;;;;;;;;;;5537064;25;20005;-60
2024/04/13 03:46:47;;;;;;;8.55;5.63;;;;;;;;;;5526461;25;20438;-57
2024/04/13 03:49:13;;;;;;;8.50;4.65;;;;;;;;;;5526310;25;20074;-59
2024/04/13 03:51:39;;;;;;;11.70;5.35;;;;;;;;;;5549724;25;20455;-60
2024/04/13 03:54:05;;;;;;;11.90;5.65;;;;;;;;;;5526606;25;20008;-59
2024/04/13 03:56:32;;;;;;;11.98;5.60;;;;;;;;;;5528687;25;19998;-59
2024/04/13 03:58:58;;;;;;;10.10;5.43;;;;;;;;;;5526469;25;20456;-59
2024/04/13 04:01:24;;;;;;;10.68;5.57;;;;;;;;;;5541170;25;19996;-59
2024/04/13 04:03:50;;;;;;;10.80;5.38;;;;;;;;;;5548407;25;19997;-59
2024/04/13 04:06:16;;;;;;;10.13;5.53;;;;;;;;;;5535544;25;20011;-59
2024/04/13 04:08:42;;;;;;;8.30;5.30;;;;;;;;;;5539772;25;20001;-60
2024/04/13 04:11:08;;;;;;;8.32;4.88;;;;;;;;;;5535416;25;20348;-61
2024/04/13 04:13:34;;;;;;;10.82;5.80;;;;;;;;;;5536766;25;20012;-59
2024/04/13 04:16:00;;;;;;;8.85;5.50;;;;;;;;;;5553112;25;20032;-60
2024/04/13 04:18:26;;;;;;;9.00;5.90;;;;;;;;;;5536154;25;20016;-60
2024/04/13 04:20:52;;;;;;;8.05;5.30;;;;;;;;;;5555111;25;20008;-59
2024/04/13 04:23:18;;;;;;;10.80;5.97;;;;;;;;;;5549632;25;20097;-60
2024/04/13 04:25:44;;;;;;;12.20;5.50;;;;;;;;;;5558178;25;20000;-60
2024/04/13 04:28:11;;;;;;;10.63;5.95;;;;;;;;;;5556545;25;20528;-60
2024/04/13 04:30:37;;;;;;;10.15;6.10;;;;;;;;;;5547056;25;20003;-60
2024/04/13 04:33:03;;;;;;;13.50;6.30;;;;;;;;;;5557154;25;19993;-60
2024/04/13 04:35:29;;;;;;;8.07;5.28;;;;;;;;;;5530053;25;20066;-61
2024/04/13 04:37:55;;;;;;;11.80;5.82;;;;;;;;;;5555146;25;20001;-60
2024/04/13 04:40:22;;;;;;;9.48;5.95;;;;;;;;;;5559767;25;19993;-60
2024/04/13 04:42:48;;;;;;;10.73;5.80;;;;;;;;;;5533351;25;20099;-60
2024/04/13 04:45:14;;;;;;;11.18;6.50;;;;;;;;;;5525247;25;20005;-59
2024/04/13 04:47:40;;;;;;;9.93;6.05;;;;;;;;;;5549961;25;19993;-61
2024/04/13 04:50:06;;;;;;;7.53;5.15;;;;;;;;;;5545069;25;20011;-60
2024/04/13 04:52:32;;;;;;;12.70;6.28;;;;;;;;;;5542141;25;19997;-60
2024/04/13 04:55:01;;;;;;;11.75;6.35;;;;;;;;;;5546722;25;20394;-61
2024/04/13 04:57:28;;;;;;;10.90;5.40;;;;;;;;;;5533525;25;20315;-58
2024/04/13 04:59:55;;;;;;;11.45;6.30;;;;;;;;;;5527882;25;20013;-60
2024/04/13 05:02:21;;;;;;;13.13;6.13;;;;;;;;;;5544873;25;20068;-60
2024/04/13 05:04:47;;;;;;;9.77;5.45;;;;;;;;;;5529930;25;20006;-59
2024/04/13 05:07:13;;;;;;;12.65;6.13;;;;;;;;;;5543694;25;20046;-60
2024/04/13 05:09:39;;;;;;;10.27;7.00;;;;;;;;;;5553391;25;20020;-59
2024/04/13 05:12:05;;;;;;;9.60;5.93;;;;;;;;;;5546442;25;20008;-60
2024/04/13 05:14:32;;;;;;;10.75;6.03;;;;;;;;;;5533256;25;20021;-59
2024/04/13 05:16:58;;;;;;;11.60;6.78;;;;;;;;;;5545038;25;19997;-60
2024/04/13 05:19:24;;;;;;;17.70;6.00;;;;;;;;;;5562494;25;20036;-59
2024/04/13 05:21:49;;;;;;;8.38;5.45;;;;;;;;;;5539489;25;20008;-60
2024/04/13 05:24:15;;;;;;;8.63;6.00;;;;;;;;;;5560010;25;20464;-59
2024/04/13 05:26:42;;;;;;;8.40;5.78;;;;;;;;;;5554330;25;20330;-59
2024/04/13 05:29:09;;;;;;;16.52;5.90;;;;;;;;;;5561908;25;20008;-60
2024/04/13 05:31:35;;;;;;;11.38;6.50;;;;;;;;;;5556119;25;20015;-59
2024/04/13 05:34:01;;;;;;;14.00;6.95;;;;;;;;;;5543651;25;20047;-59
2024/04/13 05:36:27;;;;;;;11.35;6.57;;;;;;;;;;5560304;25;20015;-60
2024/04/13 05:38:53;;;;;;;11.90;6.80;;;;;;;;;;5550916;25;20025;-60
2024/04/13 05:41:19;;;;;;;14.10;7.18;;;;;;;;;;5550281;25;19997;-60
2024/04/13 05:43:45;;;;;;;11.48;6.97;;;;;;;;;;5552793;25;19997;-59
2024/04/13 05:46:11;;;;;;;9.63;5.90;;;;;;;;;;5542739;25;20029;-60
2024/04/13 05:48:37;;;;;;;9.27;6.47;;;;;;;;;;5556039;25;20001;-60
2024/04/13 05:51:04;;;;;;;10.93;6.65;;;;;;;;;;5556319;25;20000;-60
2024/04/13 05:53:30;;;;;;;12.63;6.82;;;;;;;;;;5543651;25;22080;-60
2024/04/13 05:55:56;;;;;;;11.50;7.18;;;;;;;;;;5536905;25;20003;-60
2024/04/13 05:58:22;;;;;;;10.10;6.15;;;;;;;;;;5549159;25;20029;-60
2024/04/13 06:00:48;;;;;;;15.10;6.47;;;;;;;;;;5532852;25;20012;-60
2024/04/13 06:03:14;;;;;;;7.28;5.50;;;;;;;;;;5562360;25;20000;-60
2024/04/13 06:05:42;;;;;;;10.68;5.85;;;;;;;;;;5543612;25;19994;-60
2024/04/13 06:08:09;;;;;;;10.82;5.65;;;;;;;;;;5549626;25;20392;-58
2024/04/13 06:10:35;;;;;;;9.80;5.88;;;;;;;;;;5545888;25;20003;-59
2024/04/13 06:13:01;;;;;;;10.60;6.07;;;;;;;;;;5536815;25;20001;-57
2024/04/13 06:15:27;;;;;;;9.93;5.60;;;;;;;;;;5540712;25;20077;-57
2024/04/13 06:17:53;;;;;;;12.60;5.78;;;;;;;;;;5548491;25;20009;-58
2024/04/13 06:20:19;;;;;;;10.60;5.38;;;;;;;;;;5551813;25;20008;-57
2024/04/13 06:22:47;;;;;;;9.10;5.53;;;;;;;;;;5546688;25;20068;-58
2024/04/13 06:25:13;;;;;;;11.63;5.88;;;;;;;;;;5545080;25;20349;-58
2024/04/13 06:27:39;;;;;;;9.90;5.03;;;;;;;;;;5532946;25;20016;-58
2024/04/13 06:30:06;;;;;;;10.50;4.95;;;;;;;;;;5537878;25;20001;-58
2024/04/13 06:32:32;;;;;;;12.48;5.32;;;;;;;;;;5553192;25;20008;-57
2024/04/13 06:34:59;;;;;;;8.80;5.18;;;;;;;;;;5552873;25;20349;-57
2024/04/13 06:37:25;;;;;;;13.50;6.40;;;;;;;;;;5537208;25;20024;-56
2024/04/13 06:39:51;;;;;;;9.70;5.28;;;;;;;;;;5525287;25;20005;-58
2024/04/13 06:42:17;;;;;;;16.13;5.35;;;;;;;;;;5533813;25;20037;-57
2024/04/13 06:44:43;;;;;;;8.57;4.82;;;;;;;;;;5541600;25;20352;-57
2024/04/13 06:47:09;;;;;;;10.48;5.35;;;;;;;;;;5539983;25;20005;-58
2024/04/13 06:49:35;;;;;;;10.40;4.72;;;;;;;;;;5535044;25;20005;-57
2024/04/13 06:52:01;;;;;;;11.02;4.68;;;;;;;;;;5530097;25;20024;-60
2024/04/13 06:54:27;;;;;;;9.32;5.22;;;;;;;;;;5530766;25;20007;-58
2024/04/13 06:56:53;;;;;;;8.45;5.05;;;;;;;;;;5527744;25;20091;-58
2024/04/13 06:59:19;;;;;;;13.30;4.65;;;;;;;;;;5535226;25;20036;-59
2024/04/13 07:01:45;;;;;;;9.27;4.85;;;;;;;;;;5536900;25;20001;-58
2024/04/13 07:04:11;;;;;;;6.45;4.70;;;;;;;;;;5522386;25;20033;-58
2024/04/13 07:06:37;;;;;;;7.50;4.50;;;;;;;;;;5535228;25;20085;-58
2024/04/13 07:09:06;;;;;;;11.02;4.30;;;;;;;;;;5529567;25;20140;-58
2024/04/13 07:11:32;;;;;;;7.18;4.03;;;;;;;;;;5552614;25;20001;-59
2024/04/13 07:13:58;;;;;;;7.22;3.90;;;;;;;;;;5536333;25;20432;-58
2024/04/13 07:16:24;;;;;;;11.45;4.60;;;;;;;;;;5551357;25;19993;-58
2024/04/13 07:18:50;;;;;;;8.93;4.95;;;;;;;;;;5531586;25;20440;-62
2024/04/13 07:21:16;;;;;;;11.18;4.05;;;;;;;;;;5532454;25;19997;-63
2024/04/13 07:23:43;;;;;;;10.07;5.22;;;;;;;;;;5543426;25;20394;-62
2024/04/13 07:26:09;;;;;;;14.85;5.03;;;;;;;;;;5552262;25;20028;-62
2024/04/13 07:28:35;;;;;;;14.50;5.97;;;;;;;;;;5562286;25;20135;-63
2024/04/13 07:31:01;;;;;;;9.98;5.35;;;;;;;;;;5553980;25;20001;-62
2024/04/13 07:33:27;;;;;;;14.48;4.68;;;;;;;;;;5546655;25;20016;-63
2024/04/13 07:35:53;;;;;;;9.93;5.10;;;;;;;;;;5527227;25;20020;-63
2024/04/13 07:38:19;;;;;;;9.35;5.07;;;;;;;;;;5551649;25;20004;-63
2024/04/13 07:40:46;;;;;;;11.23;4.13;;;;;;;;;;5537500;25;19996;-62
2024/04/13 07:43:12;;;;;;;8.45;4.95;;;;;;;;;;5533649;25;19993;-62
2024/04/13 07:45:38;;;;;;;17.70;4.63;;;;;;;;;;5537540;25;20097;-62
2024/04/13 07:48:04;;;;;;;16.63;5.18;;;;;;;;;;5556129;25;20004;-63
2024/04/13 07:50:30;;;;;;;8.82;4.05;;;;;;;;;;5548326;25;19993;-63
2024/04/13 07:52:57;;;;;;;12.23;4.50;;;;;;;;;;5541541;25;20039;-63
2024/04/13 07:55:23;;;;;;;7.90;3.50;;;;;;;;;;5556734;25;20476;-62
2024/04/13 07:57:49;;;;;;;5.38;3.60;;;;;;;;;;5551183;25;20040;-62
2024/04/13 08:00:15;;;;;;;7.32;4.20;;;;;;;;;;5557898;25;20023;-62
2024/04/13 08:02:41;;;;;;;13.45;4.07;;;;;;;;;;5546479;25;20315;-62
2024/04/13 08:05:07;;;;;;;6.97;3.90;;;;;;;;;;5528140;25;20098;-62
2024/04/13 08:07:33;;;;;;;7.63;3.40;;;;;;;;;;5538841;25;20110;-62
2024/04/13 08:09:59;;;;;;;9.05;3.88;;;;;;;;;;5557325;25;20000;-62
2024/04/13 08:12:26;;;;;;;5.55;2.70;;;;;;;;;;5532021;25;20341;-60
2024/04/13 08:14:52;;;;;;;7.22;3.30;;;;;;;;;;5524525;25;20013;-61
2024/04/13 08:17:18;;;;;;;5.40;3.55;;;;;;;;;;5529626;25;20020;-62
2024/04/13 08:19:44;;;;;;;5.50;3.22;;;;;;;;;;5527393;25;19997;-62
2024/04/13 08:22:10;;;;;;;7.38;3.00;;;;;;;;;;5527829;25;19996;-62
2024/04/13 08:24:36;;;;;;;5.90;2.78;;;;;;;;;;5531957;25;20116;-62
2024/04/13 08:27:02;;;;;;;6.35;3.17;;;;;;;;;;5528332;25;20029;-62
2024/04/13 08:29:28;;;;;;;5.90;2.58;;;;;;;;;;5538364;25;20005;-60
2024/04/13 08:31:54;;;;;;;5.90;2.53;;;;;;;;;;5523852;25;20011;-60
2024/04/13 08:34:20;;;;;;;7.40;2.90;;;;;;;;;;5538949;25;19997;-60
2024/04/13 08:36:46;;;;;;;5.35;3.08;;;;;;;;;;5542171;25;19997;-60
2024/04/13 08:39:12;;;;;;;7.90;3.40;;;;;;;;;;5539191;25;20033;-60
2024/04/13 08:41:43;;;;;;;7.85;3.08;;;;;;;;;;5542588;25;20432;-60
2024/04/13 08:44:09;;;;;;;3.95;2.75;;;;;;;;;;5545183;25;20007;-60
2024/04/13 08:46:35;;;;;;;8.13;3.10;;;;;;;;;;5526426;25;19998;-60
2024/04/13 08:49:03;;;;;;;8.98;2.75;;;;;;;;;;5542666;25;20027;-59
2024/04/13 08:51:31;;;;;;;5.75;3.15;;;;;;;;;;5524655;25;20325;-60
2024/04/13 08:53:57;;;;;;;8.50;3.45;;;;;;;;;;5528736;25;20016;-59
2024/04/13 08:56:24;;;;;;;9.30;2.85;;;;;;;;;;5523695;25;19997;-60
2024/04/13 08:58:52;;;;;;;8.00;3.30;;;;;;;;;;5532080;25;19997;-61
2024/04/13 09:01:23;;;;;;;7.68;3.15;;;;;;;;;;5538974;25;20670;-60
2024/04/13 09:03:49;;;;;;;5.53;2.20;;;;;;;;;;5536566;25;20020;-60
2024/04/13 09:06:15;;;;;;;5.97;2.58;;;;;;;;;;5532579;25;20468;-60
2024/04/13 09:08:41;;;;;;;11.05;2.47;;;;;;;;;;5536546;25;20086;-60
2024/04/13 09:11:08;;;;;;;11.27;3.75;;;;;;;;;;5540158;25;19992;-60
2024/04/13 09:13:35;;;;;;;13.20;3.00;;;;;;;;;;5530196;25;20070;-60
2024/04/13 09:16:01;;;;;;;10.07;2.63;;;;;;;;;;5532077;25;20441;-60
2024/04/13 09:18:27;;;;;;;8.18;3.40;;;;;;;;;;5529542;25;20330;-59
2024/04/13 09:20:54;;;;;;;6.53;2.40;;;;;;;;;;5535458;25;20006;-59
2024/04/13 09:23:20;;;;;;;5.38;2.53;;;;;;;;;;5522788;25;20347;-60
2024/04/13 09:25:46;;;;;;;4.85;2.40;;;;;;;;;;5536470;25;20040;-60
2024/04/13 09:28:12;;;;;;;5.88;2.22;;;;;;;;;;5532593;25;20437;-59
2024/04/13 09:30:42;;;;;;;2.80;1.88;;;;;;;;;;5528836;25;20079;-60
2024/04/13 09:33:08;;;;;;;7.82;2.65;;;;;;;;;;5532067;25;20005;-60
2024/04/13 09:35:34;;;;;;;4.18;2.13;;;;;;;;;;5534393;25;20019;-61
2024/04/13 09:38:01;;;;;;;6.03;2.17;;;;;;;;;;5533833;25;20722;-62
2024/04/13 09:40:30;;;;;;;5.55;1.90;;;;;;;;;;5524357;25;20009;-58
2024/04/13 09:42:56;;;;;;;5.72;1.50;;;;;;;;;;5528060;25;20432;-57
2024/04/13 09:45:22;;;;;;;3.15;1.88;;;;;;;;;;5539647;25;20080;-59
2024/04/13 09:47:51;;;;;;;6.10;2.63;;;;;;;;;;5536321;25;20313;-59
2024/04/13 09:50:18;;;;;;;3.33;1.67;;;;;;;;;;5554677;25;20011;-60
2024/04/13 09:52:44;;;;;;;7.85;2.60;;;;;;;;;;5535857;25;20551;-59
2024/04/13 09:55:10;;;;;;;3.65;1.75;;;;;;;;;;5539355;25;20012;-59
2024/04/13 09:57:36;;;;;;;3.20;2.10;;;;;;;;;;5529214;25;20453;-58
2024/04/13 10:00:03;;;;;;;4.53;1.70;;;;;;;;;;5527613;25;20005;-59
2024/04/13 10:02:30;;;;;;;8.75;2.03;;;;;;;;;;5521187;25;20016;-60
2024/04/13 10:04:56;;;;;;;3.53;1.95;;;;;;;;;;5540889;25;19997;-59
2024/04/13 10:07:25;;;;;;;4.45;1.88;;;;;;;;;;5535956;25;20029;-58
2024/04/13 10:09:55;;;;;;;3.10;1.70;;;;;;;;;;5536498;25;20492;-59
2024/04/13 10:12:24;;;;;;;12.80;3.20;;;;;;;;;;5543347;25;19997;-58
2024/04/13 10:14:51;;;;;;;3.10;1.73;;;;;;;;;;5541005;25;20124;-59
2024/04/13 10:17:18;;;;;;;4.55;1.77;;;;;;;;;;5547234;25;20008;-59
2024/04/13 10:19:47;;;;;;;4.38;1.17;;;;;;;;;;5557341;25;20401;-59
2024/04/13 10:22:13;;;;;;;6.53;1.60;;;;;;;;;;5540317;25;20000;-59
2024/04/13 10:24:43;;;;;;;2.85;1.40;;;;;;;;;;5548286;25;20001;-59
2024/04/13 10:27:10;;;;;;;5.38;1.42;;;;;;;;;;5531870;25;20034;-59
2024/04/13 10:29:40;;;;;;;2.70;1.23;;;;;;;;;;5537998;25;20003;-59
2024/04/13 10:32:19;;;;;;;4.75;1.25;;;;;;;;;;5540778;25;19996;-60
2024/04/13 10:34:46;;;;;;;7.88;1.65;;;;;;;;;;5543238;25;20019;-59
2024/04/13 10:37:28;;;;;;;3.53;1.58;;;;;;;;;;5555105;25;20887;-59
2024/04/13 10:39:54;;;;;;;3.90;1.67;;;;;;;;;;5543286;25;19997;-59
2024/04/13 10:42:20;;;;;;;2.05;1.20;;;;;;;;;;5539311;25;20045;-59
2024/04/13 10:44:46;;;;;;;6.78;2.05;;;;;;;;;;5531212;25;20007;-59
2024/04/13 10:47:12;;;;;;;3.90;1.30;;;;;;;;;;5533569;25;20053;-59
2024/04/13 10:49:42;;;;;;;3.75;1.48;;;;;;;;;;5538368;25;19993;-63
2024/04/13 10:52:10;;;;;;;2.55;1.30;;;;;;;;;;5543007;25;19998;-62
2024/04/13 10:54:36;;;;;;;30.63;2.30;;;;;;;;;;5541121;25;20325;-63
2024/04/13 10:57:05;;;;;;;5.85;1.27;;;;;;;;;;5537002;25;20008;-63
2024/04/13 10:59:31;;;;;;;3.75;1.05;;;;;;;;;;5541882;25;19998;-63
2024/04/13 11:02:00;;;;;;;3.65;1.00;;;;;;;;;;5534175;25;20021;-63
2024/04/13 11:04:25;;;;;;;3.65;1.17;;;;;;;;;;5545165;25;20463;-60
2024/04/13 11:06:51;;;;;;;4.50;1.42;;;;;;;;;;5538121;25;20045;-63
2024/04/13 11:09:18;;;;;;;3.10;1.20;;;;;;;;;;5530537;25;19994;-62
2024/04/13 11:11:44;;;;;;;5.00;1.58;;;;;;;;;;5544378;25;20004;-63
2024/04/13 11:14:10;;;;;;;2.28;1.20;;;;;;;;;;5555708;25;20020;-63
2024/04/13 11:16:41;;;;;;;2.92;1.05;;;;;;;;;;5546938;25;20505;-63
2024/04/13 11:19:07;;;;;;;9.73;1.42;;;;;;;;;;5536494;25;20328;-63
2024/04/13 11:21:35;;;;;;;2.80;1.13;;;;;;;;;;5549412;25;20001;-63
2024/04/13 11:24:01;;;;;;;4.30;0.90;;;;;;;;;;5542855;25;20073;-63
2024/04/13 11:26:29;;;;;;;3.63;1.13;;;;;;;;;;5552304;25;19997;-61
2024/04/13 11:28:55;;;;;;;2.47;0.90;;;;;;;;;;5550312;25;20000;-63
2024/04/13 11:31:21;;;;;;;2.15;0.70;;;;;;;;;;5530193;25;20144;-64
2024/04/13 11:33:47;;;;;;;2.38;0.90;;;;;;;;;;5532552;25;20424;-61
2024/04/13 11:36:18;;;;;;;2.05;0.80;;;;;;;;;;5536148;25;20011;-63
2024/04/13 11:38:44;;;;;;;3.28;0.70;;;;;;;;;;5549983;25;20000;-61
2024/04/13 11:41:11;;;;;;;6.28;0.88;;;;;;;;;;5553567;25;20011;-61
2024/04/13 11:43:39;;;;;;;4.32;0.77;;;;;;;;;;5527805;25;19997;-61
2024/04/13 11:46:05;;;;;;;1.13;0.60;;;;;;;;;;5555029;25;20116;-61
2024/04/13 11:48:31;;;;;;;2.97;1.05;;;;;;;;;;5530498;25;20009;-62
2024/04/13 11:50:57;;;;;;;3.72;0.68;;;;;;;;;;5548342;25;20073;-62
2024/04/13 11:53:23;;;;;;;3.53;0.55;;;;;;;;;;5541634;25;20423;-62
2024/04/13 11:55:50;;;;;;;2.60;0.55;;;;;;;;;;5554392;25;20017;-61
2024/04/13 11:58:25;;;;;;;3.83;1.17;;;;;;;;;;5533798;25;20014;-63
2024/04/13 12:00:51;;;;;;;2.47;0.70;;;;;;;;;;5542615;25;20013;-62
2024/04/13 12:03:17;;;;;;;2.08;0.45;;;;;;;;;;5539602;25;20413;-63
2024/04/13 12:05:43;;;;;;;3.78;0.70;;;;;;;;;;5540173;25;20426;-63
2024/04/13 12:08:09;;;;;;;1.98;0.60;;;;;;;;;;5553451;25;19993;-62
2024/04/13 12:10:35;;;;;;;1.77;0.50;;;;;;;;;;5528066;25;20006;-62
2024/04/13 12:13:01;;;;;;;2.47;0.63;;;;;;;;;;5550828;25;19997;-62
2024/04/13 12:15:27;;;;;;;1.15;0.40;;;;;;;;;;5541127;25;20472;-62
2024/04/13 12:17:54;;;;;;;1.20;0.40;;;;;;;;;;5541068;25;19997;-62
2024/04/13 12:20:20;;;;;;;1.45;0.60;;;;;;;;;;5547492;25;20020;-62
2024/04/13 12:22:46;;;;;;;1.92;0.60;;;;;;;;;;5532884;25;20333;-61
2024/04/13 12:25:12;;;;;;;2.00;0.57;;;;;;;;;;5544888;25;19997;-62
2024/04/13 12:27:38;;;;;;;2.20;0.50;;;;;;;;;;5545451;25;19997;-62
2024/04/13 12:30:04;;;;;;;5.18;0.82;;;;;;;;;;5545772;25;20001;-62
2024/04/13 12:32:30;;;;;;;1.75;0.52;;;;;;;;;;5540630;25;20417;-62
2024/04/13 12:34:57;;;;;;;3.65;0.50;;;;;;;;;;5547355;25;20460;-63
2024/04/13 12:37:23;;;;;;;2.00;0.70;;;;;;;;;;5551291;25;20001;-62
2024/04/13 12:39:49;;;;;;;4.88;0.40;;;;;;;;;;5531610;25;20012;-62
2024/04/13 12:42:15;;;;;;;1.90;0.68;;;;;;;;;;5532134;25;19994;-62
2024/04/13 12:44:41;;;;;;;2.78;0.93;;;;;;;;;;5535893;25;20007;-64
2024/04/13 12:47:08;;;;;;;2.28;0.60;;;;;;;;;;5533881;25;19993;-62
2024/04/13 12:49:34;;;;;;;4.40;0.73;;;;;;;;;;5554641;25;20436;-62
2024/04/13 12:52:01;;;;;;;1.90;0.57;;;;;;;;;;5530656;25;20009;-60
2024/04/13 12:54:27;;;;;;;2.08;0.60;;;;;;;;;;5550650;25;20012;-61
2024/04/13 12:56:52;;;;;;;2.40;0.70;;;;;;;;;;5549195;25;20076;-63
2024/04/13 12:59:19;;;;;;;4.65;0.70;;;;;;;;;;5539787;25;19997;-64
2024/04/13 13:01:45;;;;;;;4.03;0.80;;;;;;;;;;5532942;25;19998;-62
2024/04/13 13:04:11;;;;;;;2.38;0.63;;;;;;;;;;5534789;25;20034;-61
2024/04/13 13:06:37;;;;;;;2.20;0.50;;;;;;;;;;5538677;25;20007;-61
2024/04/13 13:09:03;;;;;;;1.77;0.50;;;;;;;;;;5542620;25;20388;-61
2024/04/13 13:11:29;;;;;;;10.43;0.85;;;;;;;;;;5550891;25;20016;-59
2024/04/13 13:13:55;;;;;;;3.10;0.70;;;;;;;;;;5547304;25;19997;-60
2024/04/13 13:16:21;;;;;;;0.93;0.40;;;;;;;;;;5545585;25;20022;-59
2024/04/13 13:18:48;;;;;;;3.83;0.70;;;;;;;;;;5539293;25;20037;-59
2024/04/13 13:21:14;;;;;;;2.55;0.52;;;;;;;;;;5538668;25;20008;-59
2024/04/13 13:23:41;;;;;;;2.88;0.68;;;;;;;;;;5542627;25;20441;-59
2024/04/13 13:26:07;;;;;;;1.52;0.40;;;;;;;;;;5545010;25;20588;-60
2024/04/13 13:28:33;;;;;;;4.57;0.70;;;;;;;;;;5541037;25;20034;-60
2024/04/13 13:30:59;;;;;;;2.30;0.98;;;;;;;;;;5539455;25;20136;-60
2024/04/13 13:33:25;;;;;;;4.75;1.02;;;;;;;;;;5545251;25;21133;-58
2024/04/13 13:35:51;;;;;;;3.28;0.57;;;;;;;;;;5530534;25;20002;-60
2024/04/13 13:38:17;;;;;;;7.03;0.77;;;;;;;;;;5525393;25;20410;-60
2024/04/13 13:40:45;;;;;;;4.95;0.70;;;;;;;;;;5550753;25;20067;-61
2024/04/13 13:43:11;;;;;;;2.47;0.80;;;;;;;;;;5534840;25;20005;-60
2024/04/13 13:45:40;;;;;;;2.53;0.68;;;;;;;;;;5548562;25;20024;-59
2024/04/13 13:48:06;;;;;;;0.80;0.40;;;;;;;;;;5537773;25;20011;-61
2024/04/13 13:50:32;;;;;;;3.13;0.55;;;;;;;;;;5548123;25;20077;-60
2024/04/13 13:52:58;;;;;;;2.10;0.40;;;;;;;;;;5557625;25;20452;-59
2024/04/13 13:55:24;;;;;;;1.90;1.00;;;;;;;;;;5563352;25;20467;-59
2024/04/13 13:57:50;;;;;;;4.30;0.73;;;;;;;;;;5543764;25;20329;-60
2024/04/13 14:00:17;;;;;;;1.98;0.57;;;;;;;;;;5540180;25;20037;-59
2024/04/13 14:02:44;;;;;;;5.72;0.82;;;;;;;;;;5537341;25;20005;-60
2024/04/13 14:05:10;;;;;;;2.40;0.75;;;;;;;;;;5553602;25;20000;-58
2024/04/13 14:07:36;;;;;;;2.33;0.70;;;;;;;;;;5549188;25;20001;-59
2024/04/13 14:10:03;;;;;;;1.20;0.50;;;;;;;;;;5547629;25;20029;-59
2024/04/13 14:12:29;;;;;;;4.15;0.80;;;;;;;;;;5533636;25;20399;-59
2024/04/13 14:14:55;;;;;;;1.35;0.60;;;;;;;;;;5543140;25;20030;-59
2024/04/13 14:17:21;;;;;;;8.02;0.70;;;;;;;;;;5539619;25;21928;-58
2024/04/13 14:19:47;;;;;;;3.80;0.88;;;;;;;;;;5535188;25;20006;-59
2024/04/13 14:22:14;;;;;;;2.17;0.80;;;;;;;;;;5541853;25;20020;-59
2024/04/13 14:24:40;;;;;;;2.00;0.68;;;;;;;;;;5545720;25;20008;-60
2024/04/13 14:27:06;;;;;;;4.60;1.05;;;;;;;;;;5563562;25;20012;-61
2024/04/13 14:29:32;;;;;;;3.58;0.98;;;;;;;;;;5537211;25;20000;-59
2024/04/13 14:31:57;;;;;;;2.38;0.80;;;;;;;;;;5538655;25;20028;-59
2024/04/13 14:34:23;;;;;;;2.10;0.60;;;;;;;;;;5548264;25;20071;-60
2024/04/13 14:36:49;;;;;;;2.17;0.85;;;;;;;;;;5537273;25;19997;-59